Time;durP1;ratioP1;P1;durP2;ratioP2;P2;SDS_P1;SDS_P2;PMS_P1;PMS_P2;Temp;Humidity;BMP_temperature;BMP_pressure;BME280_temperature;BME280_humidity;BME280_pressure;Samples;Min_cycle;Max_cycle;Signal;HPM_P1;HPM_P2
2022/10/17 00:00:06;;;;;;;;;;;;;;;;;;5013340;28;19976;-77
2022/10/17 00:02:33;;;;;;;;;;;;;;;;;;5017839;28;20305;-77
2022/10/17 00:05:00;;;;;;;;;;;;;;;;;;5033013;28;20020;-77
2022/10/17 00:07:26;;;;;;;;;;;;;;;;;;5032392;28;19976;-78
2022/10/17 00:09:53;;;;;;;;;;;;;;;;;;5032787;28;19929;-77
2022/10/17 00:12:19;;;;;;;;;;;;;;;;;;5032635;28;20024;-77
2022/10/17 00:14:45;;;;;;;;;;;;;;;;;;5032726;28;20474;-78
2022/10/17 00:17:14;;;;;;;;;;;;;;;;;;5032455;28;20573;-78
2022/10/17 00:19:40;;;;;;;;;;;;;;;;;;5032515;28;19965;-77
2022/10/17 00:22:07;;;;;;;;;;;;;;;;;;5032872;28;20011;-77
2022/10/17 00:24:33;;;;;;;;;;;;;;;;;;5032552;28;19964;-77
2022/10/17 00:27:00;;;;;;;;;;;;;;;;;;5032172;28;20016;-77
2022/10/17 00:29:26;;;;;;;;;;;;;;;;;;5032126;28;19960;-77
2022/10/17 00:31:54;;;;;;;;;;;;;;;;;;5032555;28;20004;-77
2022/10/17 00:34:22;;;;;;;;;;;;;;;;;;5031787;28;19960;-77
2022/10/17 00:36:48;;;;;;;;;;;;;;;;;;5032613;28;19961;-77
2022/10/17 00:39:15;;;;;;;;;;;;;;;;;;5032298;28;19929;-78
2022/10/17 00:41:41;;;;;;;;;;;;;;;;;;5032767;28;20015;-78
2022/10/17 00:44:23;;;;;;;;;;;;;;;;;;5032267;28;20307;-78
2022/10/17 00:46:49;;;;;;;;;;;;;;;;;;5032275;28;20064;-77
2022/10/17 00:49:16;;;;;;;;;;;;;;;;;;5032478;28;19925;-77
2022/10/17 00:51:45;;;;;;;;;;;;;;;;;;5032625;28;19931;-78
2022/10/17 00:54:13;;;;;;;;;;;;;;;;;;5032480;28;20008;-77
2022/10/17 00:56:39;;;;;;;;;;;;;;;;;;5032154;28;20455;-77
2022/10/17 00:59:07;;;;;;;;;;;;;;;;;;5032622;28;20016;-76
2022/10/17 01:01:33;;;;;;;;;;;;;;;;;;5044337;28;19920;-74
2022/10/17 01:04:00;;;;;;;;;;;;;;;;;;5018692;28;19917;-76
2022/10/17 01:06:26;;;;;;;;;;;;;;;;;;5016045;28;19925;-76
2022/10/17 01:08:54;;;;;;;;;;;;;;;;;;4994730;28;19929;-76
2022/10/17 01:11:28;;;;;;;;;;;;;;;;;;4995751;28;19965;-76
2022/10/17 01:13:58;;;;;;;;;;;;;;;;;;4996624;28;19977;-76
2022/10/17 01:16:28;;;;;;;;;;;;;;;;;;4998844;28;19967;-78
2022/10/17 01:18:58;;;;;;;;;;;;;;;;;;4998744;28;19930;-76
2022/10/17 01:21:29;;;;;;;;;;;;;;;;;;4998897;28;20141;-77
2022/10/17 01:24:20;;;;;;;;;;;;;;;;;;4999521;28;19976;-77
2022/10/17 01:27:05;;;;;;;;;;;;;;;;;;4999478;28;19949;-77
2022/10/17 01:29:43;;;;;;;;;;;;;;;;;;5000971;28;20006;-76
2022/10/17 01:32:14;;;;;;;;;;;;;;;;;;5002191;28;20344;-77
2022/10/17 01:34:43;;;;;;;;;;;;;;;;;;5002816;28;19961;-78
2022/10/17 01:37:15;;;;;;;;;;;;;;;;;;5002413;28;19968;-77
2022/10/17 01:39:44;;;;;;;;;;;;;;;;;;5001762;28;19926;-76
2022/10/17 01:42:13;;;;;;;;;;;;;;;;;;5001048;28;19965;-77
2022/10/17 01:44:42;;;;;;;;;;;;;;;;;;5002452;28;19992;-78
2022/10/17 01:47:10;;;;;;;;;;;;;;;;;;5005191;28;19973;-79
2022/10/17 01:49:38;;;;;;;;;;;;;;;;;;5004119;28;19925;-77
2022/10/17 01:52:08;;;;;;;;;;;;;;;;;;5004680;28;19961;-79
2022/10/17 01:54:39;;;;;;;;;;;;;;;;;;5004375;28;19964;-78
2022/10/17 01:57:07;;;;;;;;;;;;;;;;;;5004553;28;20033;-78
2022/10/17 01:59:36;;;;;;;;;;;;;;;;;;5004303;28;19925;-78
2022/10/17 02:02:03;;;;;;;;;;;;;;;;;;5004957;28;19996;-78
2022/10/17 02:04:29;;;;;;;;;;;;;;;;;;5043998;28;19960;-78
2022/10/17 02:06:57;;;;;;;;;;;;;;;;;;5043418;28;20499;-76
2022/10/17 02:09:24;;;;;;;;;;;;;;;;;;5042919;28;19929;-77
2022/10/17 02:11:55;;;;;;;;;;;;;;;;;;5043502;28;19972;-76
2022/10/17 02:14:25;;;;;;;;;;;;;;;;;;5043414;28;19988;-77
2022/10/17 02:16:56;;;;;;;;;;;;;;;;;;5043644;28;20019;-78
2022/10/17 02:19:28;;;;;;;;;;;;;;;;;;5042993;28;19929;-78
2022/10/17 02:22:01;;;;;;;;;;;;;;;;;;5043205;28;20392;-78
2022/10/17 02:24:29;;;;;;;;;;;;;;;;;;5042716;28;20617;-78
2022/10/17 02:26:58;;;;;;;;;;;;;;;;;;5042267;28;19972;-77
2022/10/17 02:29:27;;;;;;;;;;;;;;;;;;5035041;28;19929;-77
2022/10/17 02:31:55;;;;;;;;;;;;;;;;;;5034802;28;19925;-79
2022/10/17 02:34:24;;;;;;;;;;;;;;;;;;5034631;28;20007;-78
2022/10/17 02:36:53;;;;;;;;;;;;;;;;;;5034536;28;20008;-77
2022/10/17 02:39:22;;;;;;;;;;;;;;;;;;5034074;28;20513;-77
2022/10/17 02:41:49;;;;;;;;;;;;;;;;;;5034413;28;20356;-78
2022/10/17 02:44:15;;;;;;;;;;;;;;;;;;5034296;28;19973;-77
2022/10/17 02:46:42;;;;;;;;;;;;;;;;;;5033962;28;20400;-77
2022/10/17 02:49:14;;;;;;;;;;;;;;;;;;5033990;28;20452;-77
2022/10/17 02:51:43;;;;;;;;;;;;;;;;;;5034108;28;20032;-77
2022/10/17 02:54:12;;;;;;;;;;;;;;;;;;5034280;28;19956;-78
2022/10/17 02:56:42;;;;;;;;;;;;;;;;;;5033048;28;19971;-78
2022/10/17 02:59:12;;;;;;;;;;;;;;;;;;5034139;28;19929;-78
2022/10/17 03:01:38;;;;;;;;;;;;;;;;;;5034011;28;19925;-78
2022/10/17 03:04:06;;;;;;;;;;;;;;;;;;5034276;28;19968;-78
2022/10/17 03:06:32;;;;;;;;;;;;;;;;;;5033807;28;19925;-78
2022/10/17 03:08:58;;;;;;;;;;;;;;;;;;5033328;28;19972;-78
2022/10/17 03:11:25;;;;;;;;;;;;;;;;;;5034808;28;20012;-78
2022/10/17 03:13:53;;;;;;;;;;;;;;;;;;5035056;28;19972;-79
2022/10/17 03:16:19;;;;;;;;;;;;;;;;;;5034583;28;19929;-77
2022/10/17 03:18:46;;;;;;;;;;;;;;;;;;5034514;28;20020;-77
2022/10/17 03:21:12;;;;;;;;;;;;;;;;;;5035196;28;19931;-77
2022/10/17 03:23:39;;;;;;;;;;;;;;;;;;5034668;28;20036;-78
2022/10/17 03:26:05;;;;;;;;;;;;;;;;;;5034407;28;19952;-77
2022/10/17 03:28:32;;;;;;;;;;;;;;;;;;5034757;28;19972;-77
2022/10/17 03:31:00;;;;;;;;;;;;;;;;;;5034272;28;19980;-77
2022/10/17 03:33:26;;;;;;;;;;;;;;;;;;5034565;28;19965;-79
2022/10/17 03:35:53;;;;;;;;;;;;;;;;;;5034275;28;19925;-78
2022/10/17 03:38:19;;;;;;;;;;;;;;;;;;5033824;28;19925;-78
2022/10/17 03:40:54;;;;;;;;;;;;;;;;;;5033810;28;20011;-77
2022/10/17 03:43:20;;;;;;;;;;;;;;;;;;5033242;28;20372;-78
2022/10/17 03:45:47;;;;;;;;;;;;;;;;;;5034672;28;19987;-78
2022/10/17 03:48:14;;;;;;;;;;;;;;;;;;5033924;28;19925;-78
2022/10/17 03:50:41;;;;;;;;;;;;;;;;;;5035993;28;20016;-78
2022/10/17 03:53:07;;;;;;;;;;;;;;;;;;5034942;28;19925;-78
2022/10/17 03:55:34;;;;;;;;;;;;;;;;;;5054580;28;19933;-77
2022/10/17 03:58:00;;;;;;;;;;;;;;;;;;5057497;28;19909;-78
2022/10/17 04:00:27;;;;;;;;;;;;;;;;;;5048816;28;19969;-78
2022/10/17 04:02:53;;;;;;;;;;;;;;;;;;5030606;28;20016;-78
2022/10/17 04:05:21;;;;;;;;;;;;;;;;;;5015359;28;19925;-78
2022/10/17 04:07:47;;;;;;;;;;;;;;;;;;5015272;28;20182;-78
2022/10/17 04:10:14;;;;;;;;;;;;;;;;;;5017928;28;19926;-78
2022/10/17 04:12:40;;;;;;;;;;;;;;;;;;5015180;28;20008;-77
2022/10/17 04:15:07;;;;;;;;;;;;;;;;;;5014741;28;20012;-78
2022/10/17 04:17:34;;;;;;;;;;;;;;;;;;5014304;28;20024;-78
2022/10/17 04:20:00;;;;;;;;;;;;;;;;;;5014922;28;19976;-78
2022/10/17 04:22:28;;;;;;;;;;;;;;;;;;5014505;28;20020;-77
2022/10/17 04:24:54;;;;;;;;;;;;;;;;;;5014552;28;19926;-77
2022/10/17 04:27:21;;;;;;;;;;;;;;;;;;5014990;28;19979;-78
2022/10/17 04:29:47;;;;;;;;;;;;;;;;;;5015213;28;19925;-77
2022/10/17 04:32:14;;;;;;;;;;;;;;;;;;5012875;28;19995;-76
2022/10/17 04:34:40;;;;;;;;;;;;;;;;;;5012752;28;20427;-77
2022/10/17 04:37:07;;;;;;;;;;;;;;;;;;5012867;28;20024;-76
2022/10/17 04:39:34;;;;;;;;;;;;;;;;;;5012768;28;20033;-77
2022/10/17 04:42:01;;;;;;;;;;;;;;;;;;5012937;28;20004;-77
2022/10/17 04:44:29;;;;;;;;;;;;;;;;;;5012604;28;20016;-77
2022/10/17 04:46:56;;;;;;;;;;;;;;;;;;5012234;28;20316;-77
2022/10/17 04:49:22;;;;;;;;;;;;;;;;;;5012374;28;19971;-77
2022/10/17 04:51:49;;;;;;;;;;;;;;;;;;5012664;28;19926;-77
2022/10/17 04:54:16;;;;;;;;;;;;;;;;;;5012650;28;19926;-77
2022/10/17 04:56:43;;;;;;;;;;;;;;;;;;5012346;28;20380;-77
2022/10/17 04:59:10;;;;;;;;;;;;;;;;;;5012396;28;20381;-78
2022/10/17 05:01:36;;;;;;;;;;;;;;;;;;5012382;28;19972;-78
2022/10/17 05:04:03;;;;;;;;;;;;;;;;;;5029209;28;20420;-77
2022/10/17 05:06:30;;;;;;;;;;;;;;;;;;5031992;28;19972;-77
2022/10/17 05:08:58;;;;;;;;;;;;;;;;;;5031114;28;19930;-77
2022/10/17 05:11:25;;;;;;;;;;;;;;;;;;5029600;28;19940;-77
2022/10/17 05:13:53;;;;;;;;;;;;;;;;;;5011543;28;20028;-77
2022/10/17 05:16:20;;;;;;;;;;;;;;;;;;5011058;28;20020;-76
2022/10/17 05:18:47;;;;;;;;;;;;;;;;;;5010773;28;19925;-76
2022/10/17 05:21:14;;;;;;;;;;;;;;;;;;5014434;28;20008;-77
2022/10/17 05:23:40;;;;;;;;;;;;;;;;;;5015025;28;19964;-77
2022/10/17 05:26:07;;;;;;;;;;;;;;;;;;5014500;28;20411;-76
2022/10/17 05:28:33;;;;;;;;;;;;;;;;;;5013876;28;20016;-77
2022/10/17 05:31:03;;;;;;;;;;;;;;;;;;5014331;28;20108;-77
2022/10/17 05:33:31;;;;;;;;;;;;;;;;;;5013094;28;20261;-77
2022/10/17 05:35:57;;;;;;;;;;;;;;;;;;5014639;28;19948;-77
2022/10/17 05:38:24;;;;;;;;;;;;;;;;;;5014711;28;19926;-76
2022/10/17 05:40:50;;;;;;;;;;;;;;;;;;5014890;28;19925;-77
2022/10/17 05:43:17;;;;;;;;;;;;;;;;;;5014537;28;20020;-77
2022/10/17 05:45:43;;;;;;;;;;;;;;;;;;5014371;28;19931;-77
2022/10/17 05:48:11;;;;;;;;;;;;;;;;;;5016523;28;20020;-77
2022/10/17 05:50:37;;;;;;;;;;;;;;;;;;5019483;28;19929;-77
2022/10/17 05:53:04;;;;;;;;;;;;;;;;;;5020198;28;20503;-77
2022/10/17 05:55:30;;;;;;;;;;;;;;;;;;5024148;28;19936;-77
2022/10/17 05:57:57;;;;;;;;;;;;;;;;;;5026793;28;20359;-77
2022/10/17 06:00:23;;;;;;;;;;;;;;;;;;5025084;28;20422;-77
2022/10/17 06:02:50;;;;;;;;;;;;;;;;;;5020949;28;19929;-76
2022/10/17 06:05:18;;;;;;;;;;;;;;;;;;5025666;28;19968;-77
2022/10/17 06:07:44;;;;;;;;;;;;;;;;;;4993798;28;837156;-77
2022/10/17 06:10:13;;;;;;;;;;;;;;;;;;5025637;28;19931;-77
2022/10/17 06:12:40;;;;;;;;;;;;;;;;;;5026503;28;19933;-76
2022/10/17 06:15:07;;;;;;;;;;;;;;;;;;5021472;28;20008;-77
2022/10/17 06:17:33;;;;;;;;;;;;;;;;;;5024426;28;19925;-78
2022/10/17 06:20:00;;;;;;;;;;;;;;;;;;5025520;28;19929;-77
2022/10/17 06:22:28;;;;;;;;;;;;;;;;;;5025614;28;20369;-77
2022/10/17 06:24:54;;;;;;;;;;;;;;;;;;5025398;28;20384;-77
2022/10/17 06:27:21;;;;;;;;;;;;;;;;;;5023993;28;20020;-77
2022/10/17 06:29:47;;;;;;;;;;;;;;;;;;5023260;28;20534;-77
2022/10/17 06:32:14;;;;;;;;;;;;;;;;;;5021457;28;19927;-78
2022/10/17 06:34:40;;;;;;;;;;;;;;;;;;5025572;28;19968;-77
2022/10/17 06:37:07;;;;;;;;;;;;;;;;;;5027790;28;20063;-77
2022/10/17 06:39:35;;;;;;;;;;;;;;;;;;5032274;28;19956;-77
2022/10/17 06:42:03;;;;;;;;;;;;;;;;;;5035288;28;20043;-78
2022/10/17 06:44:30;;;;;;;;;;;;;;;;;;5034457;28;19928;-77
2022/10/17 06:46:57;;;;;;;;;;;;;;;;;;5034372;28;19925;-78
2022/10/17 06:49:24;;;;;;;;;;;;;;;;;;5034373;28;19964;-76
2022/10/17 06:51:50;;;;;;;;;;;;;;;;;;5034603;28;19933;-77
2022/10/17 06:54:17;;;;;;;;;;;;;;;;;;5034235;28;20357;-77
2022/10/17 06:56:44;;;;;;;;;;;;;;;;;;5034306;28;20360;-76
2022/10/17 06:59:11;;;;;;;;;;;;;;;;;;5034638;28;19933;-77
2022/10/17 07:01:37;;;;;;;;;;;;;;;;;;5044643;28;19968;-78
2022/10/17 07:04:04;;;;;;;;;;;;;;;;;;5045121;28;19925;-77
2022/10/17 07:06:38;;;;;;;;;;;;;;;;;;5031460;28;19941;-79
2022/10/17 07:09:05;;;;;;;;;;;;;;;;;;5023056;28;20021;-76
2022/10/17 07:11:32;;;;;;;;;;;;;;;;;;5015611;28;20373;-76
2022/10/17 07:14:00;;;;;;;;;;;;;;;;;;5012752;28;20004;-76
2022/10/17 07:16:27;;;;;;;;;;;;;;;;;;5012063;28;19926;-77
2022/10/17 07:18:54;;;;;;;;;;;;;;;;;;5011572;28;19926;-77
2022/10/17 07:21:20;;;;;;;;;;;;;;;;;;5011976;28;19929;-76
2022/10/17 07:23:47;;;;;;;;;;;;;;;;;;5011888;28;19952;-77
2022/10/17 07:26:15;;;;;;;;;;;;;;;;;;5014183;28;20011;-80
2022/10/17 07:28:43;;;;;;;;;;;;;;;;;;5014134;28;19961;-79
2022/10/17 07:31:12;;;;;;;;;;;;;;;;;;5013427;28;20004;-79
2022/10/17 07:33:38;;;;;;;;;;;;;;;;;;5011961;28;20012;-78
2022/10/17 07:36:05;;;;;;;;;;;;;;;;;;5011946;28;20000;-78
2022/10/17 07:38:32;;;;;;;;;;;;;;;;;;5010615;28;20020;-77
2022/10/17 07:40:59;;;;;;;;;;;;;;;;;;5010807;28;20434;-77
2022/10/17 07:43:26;;;;;;;;;;;;;;;;;;5011417;28;19932;-78
2022/10/17 07:45:53;;;;;;;;;;;;;;;;;;5011986;28;19955;-78
2022/10/17 07:48:21;;;;;;;;;;;;;;;;;;5011256;28;19925;-77
2022/10/17 07:50:48;;;;;;;;;;;;;;;;;;5011516;28;19929;-77
2022/10/17 07:53:15;;;;;;;;;;;;;;;;;;5011568;28;20012;-76
2022/10/17 07:55:41;;;;;;;;;;;;;;;;;;5011482;28;19948;-77
2022/10/17 07:58:08;;;;;;;;;;;;;;;;;;5011095;28;19932;-77
2022/10/17 08:00:35;;;;;;;;;;;;;;;;;;5011436;28;19932;-77
2022/10/17 08:03:01;;;;;;;;;;;;;;;;;;5010952;28;20009;-77
2022/10/17 08:05:30;;;;;;;;;;;;;;;;;;5011421;28;19936;-77
2022/10/17 08:07:56;;;;;;;;;;;;;;;;;;5011182;28;19975;-77
2022/10/17 08:10:26;;;;;;;;;;;;;;;;;;5010848;28;20517;-78
2022/10/17 08:12:53;;;;;;;;;;;;;;;;;;5009798;28;20412;-78
2022/10/17 08:15:19;;;;;;;;;;;;;;;;;;5011444;28;19968;-78
2022/10/17 08:17:45;;;;;;;;;;;;;;;;;;5010851;28;20388;-77
2022/10/17 08:20:12;;;;;;;;;;;;;;;;;;5010959;28;19929;-79
2022/10/17 08:22:40;;;;;;;;;;;;;;;;;;5011256;28;20345;-77
2022/10/17 08:25:07;;;;;;;;;;;;;;;;;;5010690;28;20042;-77
2022/10/17 08:27:34;;;;;;;;;;;;;;;;;;5012311;28;20021;-78
2022/10/17 08:30:00;;;;;;;;;;;;;;;;;;5010711;28;19925;-77
2022/10/17 08:32:28;;;;;;;;;;;;;;;;;;5009745;28;19925;-78
2022/10/17 08:34:55;;;;;;;;;;;;;;;;;;5010441;28;19926;-78
2022/10/17 08:37:22;;;;;;;;;;;;;;;;;;5010885;28;19929;-78
2022/10/17 08:39:49;;;;;;;;;;;;;;;;;;5010601;28;20012;-78
2022/10/17 08:42:34;;;;;;;;;;;;;;;;;;5010458;28;20013;-77
2022/10/17 08:45:03;;;;;;;;;;;;;;;;;;5010904;28;19991;-78
2022/10/17 08:47:35;;;;;;;;;;;;;;;;;;5030246;28;19980;-78
2022/10/17 08:50:02;;;;;;;;;;;;;;;;;;5030085;28;20016;-78
2022/10/17 08:52:32;;;;;;;;;;;;;;;;;;5030975;28;19925;-78
2022/10/17 08:55:00;;;;;;;;;;;;;;;;;;5029425;28;20434;-78
2022/10/17 08:57:27;;;;;;;;;;;;;;;;;;5030341;28;19932;-78
2022/10/17 08:59:54;;;;;;;;;;;;;;;;;;5030323;28;19925;-77
2022/10/17 09:02:44;;;;;;;;;;;;;;;;;;5027531;28;19932;-78
2022/10/17 09:05:21;;;;;;;;;;;;;;;;;;5004703;28;19926;-78
2022/10/17 09:07:50;;;;;;;;;;;;;;;;;;5010276;28;20308;-78
2022/10/17 09:10:21;;;;;;;;;;;;;;;;;;5010560;28;20008;-77
2022/10/17 09:12:53;;;;;;;;;;;;;;;;;;5010558;28;19929;-78
2022/10/17 09:15:29;;;;;;;;;;;;;;;;;;5010557;28;20012;-78
2022/10/17 09:17:58;;;;;;;;;;;;;;;;;;5010661;28;20015;-78
2022/10/17 09:20:26;;;;;;;;;;;;;;;;;;5009846;28;19925;-78
2022/10/17 09:22:56;;;;;;;;;;;;;;;;;;5010581;28;19925;-77
2022/10/17 09:25:24;;;;;;;;;;;;;;;;;;5009820;28;19930;-78
2022/10/17 09:27:52;;;;;;;;;;;;;;;;;;5010206;28;20016;-77
2022/10/17 09:30:33;;;;;;;;;;;;;;;;;;5011413;28;19926;-79
2022/10/17 09:33:00;;;;;;;;;;;;;;;;;;5010761;28;19930;-78
2022/10/17 09:35:27;;;;;;;;;;;;;;;;;;5010696;28;19967;-78
2022/10/17 09:37:54;;;;;;;;;;;;;;;;;;5009698;28;20375;-77
2022/10/17 09:40:25;;;;;;;;;;;;;;;;;;5016024;28;20024;-77
2022/10/17 09:42:53;;;;;;;;;;;;;;;;;;5016314;28;20024;-78
2022/10/17 09:45:23;;;;;;;;;;;;;;;;;;5009472;28;20016;-78
2022/10/17 09:47:54;;;;;;;;;;;;;;;;;;5010075;28;19926;-79
2022/10/17 09:50:22;;;;;;;;;;;;;;;;;;5010622;28;19972;-77
2022/10/17 09:52:52;;;;;;;;;;;;;;;;;;5015521;28;20410;-78
2022/10/17 09:55:21;;;;;;;;;;;;;;;;;;5013726;28;19926;-77
2022/10/17 09:57:52;;;;;;;;;;;;;;;;;;5009929;28;19932;-77
2022/10/17 10:00:22;;;;;;;;;;;;;;;;;;5010555;28;20001;-77
2022/10/17 10:02:48;;;;;;;;;;;;;;;;;;5010378;28;20020;-77
2022/10/17 10:05:16;;;;;;;;;;;;;;;;;;5010619;28;19929;-78
2022/10/17 10:07:43;;;;;;;;;;;;;;;;;;5013571;28;19929;-77
2022/10/17 10:10:23;;;;;;;;;;;;;;;;;;5013471;28;20020;-77
2022/10/17 10:13:01;;;;;;;;;;;;;;;;;;5029297;28;19917;-77
2022/10/17 10:15:34;;;;;;;;;;;;;;;;;;5039235;28;19909;-78
2022/10/17 10:18:01;;;;;;;;;;;;;;;;;;5040103;28;19910;-77
2022/10/17 10:20:29;;;;;;;;;;;;;;;;;;5023621;28;20032;-78
2022/10/17 10:23:16;;;;;;;;;;;;;;;;;;5015241;28;20656;-78
2022/10/17 10:25:56;;;;;;;;;;;;;;;;;;5014409;28;19925;-78
2022/10/17 10:28:24;;;;;;;;;;;;;;;;;;5014519;28;20575;-77
2022/10/17 10:30:53;;;;;;;;;;;;;;;;;;5016169;28;19971;-78
2022/10/17 10:33:20;;;;;;;;;;;;;;;;;;5016484;28;19956;-78
2022/10/17 10:35:53;;;;;;;;;;;;;;;;;;5019750;28;19980;-79
2022/10/17 10:38:20;;;;;;;;;;;;;;;;;;5020197;28;19948;-79
2022/10/17 10:40:48;;;;;;;;;;;;;;;;;;5014521;28;19926;-78
2022/10/17 10:43:22;;;;;;;;;;;;;;;;;;5020493;28;20020;-78
2022/10/17 10:45:49;;;;;;;;;;;;;;;;;;5021128;28;19929;-76
2022/10/17 10:48:22;;;;;;;;;;;;;;;;;;5022708;28;20020;-78
2022/10/17 10:50:50;;;;;;;;;;;;;;;;;;5020451;28;19957;-78
2022/10/17 10:53:25;;;;;;;;;;;;;;;;;;5015259;28;20031;-79
2022/10/17 10:55:54;;;;;;;;;;;;;;;;;;5015541;28;20417;-79
2022/10/17 10:58:25;;;;;;;;;;;;;;;;;;5014078;28;19973;-77
2022/10/17 11:00:52;;;;;;;;;;;;;;;;;;5012591;28;19976;-78
2022/10/17 11:03:21;;;;;;;;;;;;;;;;;;5024395;28;19925;-78
2022/10/17 11:05:50;;;;;;;;;;;;;;;;;;5035267;28;19924;-78
2022/10/17 11:08:20;;;;;;;;;;;;;;;;;;5035741;28;20003;-79
2022/10/17 11:10:57;;;;;;;;;;;;;;;;;;5036955;28;20392;-78
2022/10/17 11:13:27;;;;;;;;;;;;;;;;;;5056400;28;19925;-78
2022/10/17 11:15:57;;;;;;;;;;;;;;;;;;5059707;28;19925;-78
2022/10/17 11:18:27;;;;;;;;;;;;;;;;;;5056868;28;19937;-79
2022/10/17 11:20:57;;;;;;;;;;;;;;;;;;5037795;28;19983;-79
2022/10/17 11:23:27;;;;;;;;;;;;;;;;;;5033667;28;19933;-77
2022/10/17 11:25:54;;;;;;;;;;;;;;;;;;5034769;28;19979;-79
2022/10/17 11:28:22;;;;;;;;;;;;;;;;;;5033783;28;19968;-78
2022/10/17 11:30:51;;;;;;;;;;;;;;;;;;5034078;28;19965;-77
2022/10/17 11:33:20;;;;;;;;;;;;;;;;;;5034310;28;19997;-79
2022/10/17 11:35:48;;;;;;;;;;;;;;;;;;5034144;28;20430;-77
2022/10/17 11:38:18;;;;;;;;;;;;;;;;;;5036043;28;20019;-79
2022/10/17 11:40:46;;;;;;;;;;;;;;;;;;5036692;28;20083;-79
2022/10/17 11:43:15;;;;;;;;;;;;;;;;;;5035861;28;19983;-78
2022/10/17 11:45:43;;;;;;;;;;;;;;;;;;5035725;28;20000;-80
2022/10/17 11:48:12;;;;;;;;;;;;;;;;;;5035018;28;19976;-80
2022/10/17 11:50:40;;;;;;;;;;;;;;;;;;5034408;28;20015;-78
2022/10/17 11:53:09;;;;;;;;;;;;;;;;;;5035047;28;19932;-80
2022/10/17 11:55:37;;;;;;;;;;;;;;;;;;5034565;28;19937;-80
2022/10/17 11:58:14;;;;;;;;;;;;;;;;;;5032773;28;19929;-79
2022/10/17 12:00:50;;;;;;;;;;;;;;;;;;5032753;28;20394;-77
2022/10/17 12:03:22;;;;;;;;;;;;;;;;;;5033955;28;20019;-77
2022/10/17 12:05:51;;;;;;;;;;;;;;;;;;5037017;28;20020;-79
2022/10/17 12:08:21;;;;;;;;;;;;;;;;;;5031926;28;19925;-80
2022/10/17 12:10:52;;;;;;;;;;;;;;;;;;5031858;28;19925;-79
2022/10/17 12:13:40;;;;;;;;;;;;;;;;;;5036759;28;19987;-78
2022/10/17 12:16:22;;;;;;;;;;;;;;;;;;5040374;28;19929;-78
2022/10/17 12:18:51;;;;;;;;;;;;;;;;;;5032802;28;19925;-78
2022/10/17 12:21:17;;;;;;;;;;;;;;;;;;5032270;28;19925;-77
2022/10/17 12:23:51;;;;;;;;;;;;;;;;;;5032202;28;20260;-79
2022/10/17 12:26:25;;;;;;;;;;;;;;;;;;5034367;28;19925;-79
2022/10/17 12:28:52;;;;;;;;;;;;;;;;;;5030035;28;20012;-79
2022/10/17 12:31:24;;;;;;;;;;;;;;;;;;5031044;28;20439;-79
2022/10/17 12:33:51;;;;;;;;;;;;;;;;;;5031385;28;19925;-79
2022/10/17 12:36:47;;;;;;;;;;;;;;;;;;5030713;28;20021;-79
2022/10/17 12:39:32;;;;;;;;;;;;;;;;;;5031432;28;19929;-79
2022/10/17 12:42:00;;;;;;;;;;;;;;;;;;5031360;28;20020;-79
2022/10/17 12:44:36;;;;;;;;;;;;;;;;;;5030866;28;19931;-78
2022/10/17 12:47:18;;;;;;;;;;;;;;;;;;5030863;28;19933;-77
2022/10/17 12:49:45;;;;;;;;;;;;;;;;;;5031805;28;19929;-79
2022/10/17 12:52:27;;;;;;;;;;;;;;;;;;5038847;28;19925;-78
2022/10/17 12:54:58;;;;;;;;;;;;;;;;;;5034535;28;20363;-80
2022/10/17 12:57:30;;;;;;;;;;;;;;;;;;5024778;28;19936;-80
2022/10/17 12:59:56;;;;;;;;;;;;;;;;;;5017338;28;19988;-79
2022/10/17 13:02:25;;;;;;;;;;;;;;;;;;5019521;28;19957;-80
2022/10/17 13:04:55;;;;;;;;;;;;;;;;;;5037874;28;19932;-80
2022/10/17 13:07:22;;;;;;;;;;;;;;;;;;5038341;28;19964;-80
2022/10/17 13:09:50;;;;;;;;;;;;;;;;;;5037383;28;19985;-80
2022/10/17 13:12:20;;;;;;;;;;;;;;;;;;5018781;28;19968;-79
2022/10/17 13:14:49;;;;;;;;;;;;;;;;;;5017974;28;19969;-80
2022/10/17 13:17:23;;;;;;;;;;;;;;;;;;5018439;28;20435;-80
2022/10/17 13:19:50;;;;;;;;;;;;;;;;;;5019044;28;19965;-79
2022/10/17 13:22:17;;;;;;;;;;;;;;;;;;5019039;28;19925;-79
2022/10/17 13:24:44;;;;;;;;;;;;;;;;;;5018720;28;19965;-80
2022/10/17 13:27:22;;;;;;;;;;;;;;;;;;5018331;28;20001;-79
2022/10/17 13:29:50;;;;;;;;;;;;;;;;;;5018961;28;19968;-80
2022/10/17 13:32:16;;;;;;;;;;;;;;;;;;5018739;28;20020;-80
2022/10/17 13:34:43;;;;;;;;;;;;;;;;;;5037053;28;20732;-80
2022/10/17 13:37:12;;;;;;;;;;;;;;;;;;5038143;28;20436;-79
2022/10/17 13:39:41;;;;;;;;;;;;;;;;;;5038714;28;20364;-79
2022/10/17 13:42:22;;;;;;;;;;;;;;;;;;5041068;28;19961;-79
2022/10/17 13:44:50;;;;;;;;;;;;;;;;;;5041766;28;19926;-80
2022/10/17 13:47:23;;;;;;;;;;;;;;;;;;5041757;28;20024;-79
2022/10/17 13:49:50;;;;;;;;;;;;;;;;;;5041483;28;19975;-80
2022/10/17 13:52:18;;;;;;;;;;;;;;;;;;5042899;28;19964;-80
2022/10/17 13:54:45;;;;;;;;;;;;;;;;;;5039919;28;20015;-79
2022/10/17 13:57:17;;;;;;;;;;;;;;;;;;5043147;28;19957;-80
2022/10/17 13:59:46;;;;;;;;;;;;;;;;;;5039790;28;20012;-79
2022/10/17 14:02:16;;;;;;;;;;;;;;;;;;5035514;28;20519;-79
2022/10/17 14:04:42;;;;;;;;;;;;;;;;;;5017974;28;20078;-80
2022/10/17 14:07:19;;;;;;;;;;;;;;;;;;5022702;28;19949;-79
2022/10/17 14:09:46;;;;;;;;;;;;;;;;;;5014966;28;19979;-80
2022/10/17 14:12:15;;;;;;;;;;;;;;;;;;5015428;28;19932;-79
2022/10/17 14:14:46;;;;;;;;;;;;;;;;;;5016322;28;20407;-78
2022/10/17 14:17:15;;;;;;;;;;;;;;;;;;5014484;28;20360;-78
2022/10/17 14:19:41;;;;;;;;;;;;;;;;;;5014302;28;20016;-80
2022/10/17 14:22:17;;;;;;;;;;;;;;;;;;5014542;28;19925;-79
2022/10/17 14:24:44;;;;;;;;;;;;;;;;;;5015146;28;20024;-79
2022/10/17 14:27:25;;;;;;;;;;;;;;;;;;5014321;28;19934;-79
2022/10/17 14:29:52;;;;;;;;;;;;;;;;;;5014186;28;20021;-79
2022/10/17 14:32:21;;;;;;;;;;;;;;;;;;5015378;28;19932;-79
2022/10/17 14:34:52;;;;;;;;;;;;;;;;;;5015826;28;20024;-79
2022/10/17 14:37:24;;;;;;;;;;;;;;;;;;5016320;28;19972;-78
2022/10/17 14:39:51;;;;;;;;;;;;;;;;;;5017900;28;20457;-78
2022/10/17 14:42:18;;;;;;;;;;;;;;;;;;5036337;28;19910;-78
2022/10/17 14:44:49;;;;;;;;;;;;;;;;;;5040717;28;19936;-79
2022/10/17 14:47:17;;;;;;;;;;;;;;;;;;5027338;28;19925;-78
2022/10/17 14:49:48;;;;;;;;;;;;;;;;;;5027358;28;20031;-77
2022/10/17 14:52:37;;;;;;;;;;;;;;;;;;5020141;28;19925;-78
2022/10/17 14:55:17;;;;;;;;;;;;;;;;;;5024590;28;19980;-79
2022/10/17 14:57:44;;;;;;;;;;;;;;;;;;5023038;28;19934;-80
2022/10/17 15:00:13;;;;;;;;;;;;;;;;;;5001726;28;19958;-78
2022/10/17 15:02:40;;;;;;;;;;;;;;;;;;5012980;28;19952;-80
2022/10/17 15:05:08;;;;;;;;;;;;;;;;;;5042495;28;19925;-79
2022/10/17 15:07:35;;;;;;;;;;;;;;;;;;5042461;28;19960;-79
2022/10/17 15:10:01;;;;;;;;;;;;;;;;;;5040791;28;19925;-78
2022/10/17 15:12:27;;;;;;;;;;;;;;;;;;5036927;28;19960;-79
2022/10/17 15:14:54;;;;;;;;;;;;;;;;;;5031622;28;20017;-79
2022/10/17 15:17:22;;;;;;;;;;;;;;;;;;5030431;28;19925;-79
2022/10/17 15:19:49;;;;;;;;;;;;;;;;;;5033447;28;19956;-78
2022/10/17 15:22:17;;;;;;;;;;;;;;;;;;5029832;28;20015;-78
2022/10/17 15:24:44;;;;;;;;;;;;;;;;;;5012580;28;20012;-78
2022/10/17 15:27:14;;;;;;;;;;;;;;;;;;5016107;28;19947;-79
2022/10/17 15:29:41;;;;;;;;;;;;;;;;;;5012216;28;20082;-78
2022/10/17 15:32:07;;;;;;;;;;;;;;;;;;5012341;28;19989;-78
2022/10/17 15:34:34;;;;;;;;;;;;;;;;;;5012326;28;20443;-79
2022/10/17 15:37:00;;;;;;;;;;;;;;;;;;5012622;28;20060;-78
2022/10/17 15:39:28;;;;;;;;;;;;;;;;;;5012160;28;20004;-79
2022/10/17 15:41:54;;;;;;;;;;;;;;;;;;5012521;28;20012;-78
2022/10/17 15:44:21;;;;;;;;;;;;;;;;;;5012203;28;20037;-78
2022/10/17 15:46:47;;;;;;;;;;;;;;;;;;5013400;28;19969;-79
2022/10/17 15:49:16;;;;;;;;;;;;;;;;;;5012527;28;20012;-79
2022/10/17 15:51:42;;;;;;;;;;;;;;;;;;5012339;28;19933;-79
2022/10/17 15:54:09;;;;;;;;;;;;;;;;;;5013451;28;19929;-79
2022/10/17 15:56:37;;;;;;;;;;;;;;;;;;5012389;28;19973;-79
2022/10/17 15:59:05;;;;;;;;;;;;;;;;;;5014354;28;19926;-79
2022/10/17 16:01:32;;;;;;;;;;;;;;;;;;5015321;28;20020;-79
2022/10/17 16:03:59;;;;;;;;;;;;;;;;;;5023364;28;19925;-79
2022/10/17 16:06:25;;;;;;;;;;;;;;;;;;5026217;28;20101;-77
2022/10/17 16:08:52;;;;;;;;;;;;;;;;;;5023293;28;20024;-80
2022/10/17 16:11:23;;;;;;;;;;;;;;;;;;5033878;28;19932;-79
2022/10/17 16:13:52;;;;;;;;;;;;;;;;;;5034572;28;19929;-79
2022/10/17 16:16:19;;;;;;;;;;;;;;;;;;5024305;28;20416;-79
2022/10/17 16:18:45;;;;;;;;;;;;;;;;;;5021326;28;19948;-77
2022/10/17 16:21:13;;;;;;;;;;;;;;;;;;5019234;28;20019;-79
2022/10/17 16:23:40;;;;;;;;;;;;;;;;;;5021377;28;19936;-78
2022/10/17 16:26:07;;;;;;;;;;;;;;;;;;5024709;28;19929;-78
2022/10/17 16:28:36;;;;;;;;;;;;;;;;;;5031041;28;19925;-77
2022/10/17 16:31:03;;;;;;;;;;;;;;;;;;5032917;28;19933;-79
2022/10/17 16:33:30;;;;;;;;;;;;;;;;;;5033441;28;19925;-78
2022/10/17 16:35:56;;;;;;;;;;;;;;;;;;5037292;28;20148;-79
2022/10/17 16:38:23;;;;;;;;;;;;;;;;;;5034230;28;19929;-78
2022/10/17 16:40:49;;;;;;;;;;;;;;;;;;5030659;28;20004;-79
2022/10/17 16:43:16;;;;;;;;;;;;;;;;;;5031259;28;19952;-79
2022/10/17 16:45:42;;;;;;;;;;;;;;;;;;5031295;28;19925;-78
2022/10/17 16:48:11;;;;;;;;;;;;;;;;;;5030758;28;20015;-78
2022/10/17 16:50:38;;;;;;;;;;;;;;;;;;5031911;28;19936;-78
2022/10/17 16:53:05;;;;;;;;;;;;;;;;;;5030803;28;19971;-77
2022/10/17 16:55:31;;;;;;;;;;;;;;;;;;5031501;28;20265;-77